createdAt,value
2018-12-26T00:05:31.805Z,81.63
2018-12-26T00:10:27.821Z,81.54
2018-12-26T00:15:23.841Z,80.48
2018-12-26T00:20:19.885Z,80.85
2018-12-26T00:25:15.965Z,80.38
2018-12-26T00:30:12.017Z,80.57
2018-12-26T00:35:08.095Z,80.37
2018-12-26T00:40:04.117Z,80.78
2018-12-26T00:45:00.178Z,80.50
2018-12-26T00:49:56.155Z,80.95
2018-12-26T00:54:52.206Z,80.75
2018-12-26T00:59:48.290Z,80.87
2018-12-26T01:04:44.306Z,80.71
2018-12-26T01:09:40.328Z,80.90
2018-12-26T01:14:36.345Z,80.77
2018-12-26T01:19:32.365Z,80.75
2018-12-26T01:24:28.377Z,80.99
2018-12-26T01:29:24.363Z,81.10
2018-12-26T01:34:20.381Z,81.63
2018-12-26T01:39:16.398Z,81.59
2018-12-26T01:44:12.420Z,81.72
2018-12-26T01:49:08.429Z,81.22
2018-12-26T01:54:04.446Z,81.59
2018-12-26T01:59:00.483Z,81.29
2018-12-26T02:03:56.495Z,81.47
2018-12-26T02:08:52.505Z,81.83
2018-12-26T02:13:49.335Z,81.90
2018-12-26T02:18:45.445Z,81.85
2018-12-26T02:23:41.457Z,81.57
2018-12-26T02:28:38.177Z,81.77
2018-12-26T02:33:34.198Z,81.98
2018-12-26T02:38:30.217Z,81.74
2018-12-26T02:43:26.324Z,81.84
2018-12-26T02:48:22.356Z,82.55
2018-12-26T02:53:18.376Z,82.38
2018-12-26T02:58:15.087Z,82.25
2018-12-26T03:03:11.069Z,82.59
2018-12-26T03:08:07.089Z,83.24
2018-12-26T03:13:03.103Z,82.80
2018-12-26T03:17:59.150Z,83.34
2018-12-26T03:22:55.139Z,83.15
2018-12-26T03:28:11.633Z,82.65
2018-12-26T03:33:07.631Z,83.05
2018-12-26T03:38:03.649Z,83.28
2018-12-26T03:43:41.298Z,83.02
2018-12-26T03:48:37.438Z,83.40
2018-12-26T03:53:33.571Z,83.68
2018-12-26T03:58:30.395Z,83.98
2018-12-26T04:03:26.476Z,83.80
2018-12-26T04:08:22.577Z,83.96
2018-12-26T04:13:18.595Z,83.97
2018-12-26T04:18:14.628Z,83.79
2018-12-26T04:23:10.642Z,83.91
2018-12-26T04:28:27.056Z,84.03
2018-12-26T04:33:23.055Z,84.06
2018-12-26T04:38:19.062Z,83.78
2018-12-26T04:43:15.079Z,83.83
2018-12-26T04:48:11.100Z,83.86
2018-12-26T04:53:07.192Z,83.79
2018-12-26T04:58:23.669Z,83.59
2018-12-26T05:03:19.646Z,83.42
2018-12-26T05:08:15.665Z,84.17
2018-12-26T05:13:11.683Z,84.19
2018-12-26T05:18:07.690Z,84.33
2018-12-26T05:23:03.809Z,84.32
2018-12-26T05:28:41.774Z,84.73
2018-12-26T05:33:37.785Z,85.25
2018-12-26T05:38:33.812Z,84.72
2018-12-26T05:43:29.996Z,84.95
2018-12-26T05:48:26.490Z,85.25
2018-12-26T05:58:38.290Z,85.65
2018-12-26T06:03:34.343Z,86.59
2018-12-26T06:08:30.378Z,87.65
2018-12-26T06:13:26.392Z,88.70
2018-12-26T06:18:22.401Z,89.51
2018-12-26T06:23:18.428Z,90.01
2018-12-26T06:28:15.115Z,91.18
2018-12-26T06:33:11.093Z,91.62
2018-12-26T06:38:07.107Z,91.99
2018-12-26T06:43:03.136Z,91.63
2018-12-26T06:47:59.195Z,92.14
2018-12-26T06:52:55.218Z,92.31
2018-12-26T07:03:07.347Z,92.90
2018-12-26T07:08:03.371Z,93.03
2018-12-26T07:12:59.407Z,93.42
2018-12-26T07:17:55.430Z,93.15
2018-12-26T07:22:51.446Z,93.16
2018-12-26T07:27:50.658Z,92.82
2018-12-26T07:32:46.809Z,92.79
2018-12-26T07:37:42.907Z,92.74
2018-12-26T07:42:38.998Z,92.83
2018-12-26T07:47:35.100Z,92.75
2018-12-26T07:52:31.115Z,93.44
2018-12-26T07:57:27.769Z,93.32
2018-12-26T08:02:23.825Z,92.94
2018-12-26T08:07:19.999Z,92.75
2018-12-26T08:12:15.995Z,92.87
2018-12-26T08:17:12.556Z,92.94
2018-12-26T08:22:08.671Z,93.23
2018-12-26T08:27:12.108Z,92.98
2018-12-26T08:32:08.129Z,92.62
2018-12-26T08:37:04.261Z,92.91
2018-12-26T08:42:20.946Z,93.14
2018-12-26T08:47:17.102Z,93.06
2018-12-26T08:52:13.167Z,92.72
2018-12-26T08:57:09.195Z,92.84
2018-12-26T09:02:05.225Z,92.61
2018-12-26T09:07:01.516Z,91.91
2018-12-26T09:11:57.633Z,92.23
2018-12-26T09:16:53.873Z,92.76
2018-12-26T09:21:50.008Z,92.25
2018-12-26T09:26:47.429Z,92.68
2018-12-26T09:31:44.217Z,92.96
2018-12-26T09:37:22.291Z,92.46
2018-12-26T09:42:18.384Z,92.66
2018-12-26T09:47:14.538Z,92.75
2018-12-26T09:52:10.583Z,93.08
2018-12-26T09:57:06.642Z,93.16
2018-12-26T10:02:02.762Z,92.88
2018-12-26T10:06:59.718Z,93.09
2018-12-26T10:11:55.814Z,93.16
2018-12-26T10:17:33.509Z,93.18
2018-12-26T10:22:29.595Z,93.22
2018-12-26T10:27:27.513Z,93.43
2018-12-26T10:32:23.660Z,93.60
2018-12-26T10:37:19.757Z,93.75
2018-12-26T10:42:15.788Z,93.96
2018-12-26T10:47:11.957Z,93.79
2018-12-26T10:52:07.981Z,93.66
2018-12-26T10:57:04.025Z,93.61
2018-12-26T11:02:00.118Z,94.14
2018-12-26T11:12:12.468Z,94.12
2018-12-26T11:17:50.205Z,94.17
2018-12-26T11:23:28.331Z,94.21
2018-12-26T11:28:25.865Z,94.62
2018-12-26T11:33:22.053Z,94.67
2018-12-26T11:38:18.317Z,94.62
2018-12-26T11:43:14.842Z,94.64
2018-12-26T11:48:11.273Z,94.89
2018-12-26T11:53:07.553Z,95.02
2018-12-26T11:58:24.019Z,94.70
2018-12-26T12:03:39.900Z,94.45
2018-12-26T12:08:35.982Z,94.52
2018-12-26T12:13:32.248Z,94.61
2018-12-26T12:18:28.665Z,94.95
2018-12-26T12:23:24.860Z,95.34
2018-12-26T12:28:41.323Z,95.54
2018-12-26T12:33:37.374Z,95.51
2018-12-26T12:38:33.583Z,95.24
2018-12-26T12:43:51.625Z,95.43
2018-12-26T12:48:47.862Z,95.44
2018-12-26T12:53:44.136Z,95.69
2018-12-26T12:58:41.031Z,96.09
2018-12-26T13:03:37.148Z,96.35
2018-12-26T13:08:33.268Z,96.10
2018-12-26T13:13:29.320Z,95.61
2018-12-26T13:18:25.848Z,95.39
2018-12-26T13:23:22.287Z,95.42
2018-12-26T13:28:19.242Z,95.34
2018-12-26T13:33:17.200Z,95.46
2018-12-26T13:38:13.548Z,95.72
2018-12-26T13:43:09.611Z,96.03
2018-12-26T13:48:05.716Z,95.49
2018-12-26T13:53:01.781Z,95.55
2018-12-26T14:03:22.288Z,95.58
2018-12-26T14:08:18.361Z,95.63
2018-12-26T14:13:14.452Z,95.90
2018-12-26T14:18:10.484Z,96.22
2018-12-26T14:23:06.583Z,96.04
2018-12-26T14:28:03.272Z,96.15
2018-12-26T14:32:59.286Z,95.96
2018-12-26T14:37:55.314Z,95.49
2018-12-26T14:42:51.359Z,96.02
2018-12-26T14:47:47.385Z,95.89
2018-12-26T14:52:43.423Z,95.87
2018-12-26T15:02:42.096Z,95.95
2018-12-26T15:07:38.243Z,95.87
2018-12-26T15:12:34.232Z,95.79
2018-12-26T15:17:30.266Z,95.81
2018-12-26T15:22:26.294Z,95.79
2018-12-26T15:27:22.402Z,94.94
2018-12-26T15:32:38.345Z,95.03
2018-12-26T15:37:34.395Z,95.30
2018-12-26T15:42:30.406Z,95.41
2018-12-26T15:47:26.592Z,95.45
2018-12-26T15:52:22.702Z,95.19
2018-12-26T15:57:18.818Z,95.01
2018-12-26T16:02:14.831Z,94.81
2018-12-26T16:07:10.850Z,94.61
2018-12-26T16:12:06.869Z,94.22
2018-12-26T16:17:03.010Z,94.64
2018-12-26T16:21:59.138Z,94.85
2018-12-26T16:26:55.174Z,95.05
2018-12-26T16:31:51.215Z,94.63
2018-12-26T16:36:47.246Z,94.31
2018-12-26T16:41:43.281Z,93.70
2018-12-26T16:46:39.324Z,94.11
2018-12-26T16:51:35.364Z,94.60
2018-12-26T16:56:31.394Z,93.94
2018-12-26T17:01:27.412Z,93.78
2018-12-26T17:06:23.485Z,93.56
2018-12-26T17:11:19.505Z,93.91
2018-12-26T17:16:15.542Z,94.47
2018-12-26T17:21:11.603Z,94.29
2018-12-26T17:26:07.747Z,94.26
2018-12-26T17:31:04.203Z,94.83
2018-12-26T17:36:01.685Z,95.24
2018-12-26T17:40:57.813Z,94.99
2018-12-26T17:45:53.842Z,94.84
2018-12-26T17:50:49.955Z,95.27
2018-12-26T17:56:27.624Z,95.40
2018-12-26T18:02:05.411Z,95.50
2018-12-26T18:07:01.452Z,95.36
2018-12-26T18:12:11.234Z,95.57
2018-12-26T18:17:15.588Z,95.04
2018-12-26T18:22:11.759Z,95.03
2018-12-26T18:27:07.816Z,95.37
2018-12-26T18:32:03.841Z,94.94
2018-12-26T18:36:59.860Z,95.34
2018-12-26T18:41:55.873Z,95.48
2018-12-26T18:46:51.941Z,95.16
2018-12-26T18:51:47.967Z,94.98
2018-12-26T18:56:43.982Z,95.17
2018-12-26T19:01:40.014Z,94.10
2018-12-26T19:06:36.047Z,94.16
2018-12-26T19:11:32.058Z,93.81
2018-12-26T19:16:28.042Z,93.86
2018-12-26T19:21:24.062Z,93.74
2018-12-26T19:26:20.085Z,93.62
2018-12-26T19:31:16.100Z,94.30
2018-12-26T19:36:12.122Z,93.98
2018-12-26T19:41:08.134Z,94.11
2018-12-26T19:46:04.179Z,93.72
2018-12-26T19:51:00.194Z,93.38
2018-12-26T19:55:56.226Z,93.49
2018-12-26T20:00:52.241Z,93.40
2018-12-26T20:05:48.359Z,93.90
2018-12-26T20:10:44.380Z,94.29
2018-12-26T20:15:40.762Z,93.99
2018-12-26T20:20:37.094Z,93.29
2018-12-26T20:25:33.442Z,93.41
2018-12-26T20:30:29.806Z,93.87
2018-12-26T20:35:26.207Z,94.18
2018-12-26T20:40:44.885Z,94.01
2018-12-26T20:50:46.342Z,93.87
2018-12-26T20:55:45.703Z,93.11
2018-12-26T21:01:02.413Z,93.09
2018-12-26T21:05:59.689Z,93.52
2018-12-26T21:10:56.787Z,93.84
2018-12-26T21:15:53.775Z,93.90
2018-12-26T21:20:50.769Z,94.12
2018-12-26T21:25:47.954Z,94.26
2018-12-26T21:30:48.414Z,94.17
2018-12-26T21:35:45.536Z,93.95
2018-12-26T21:40:44.282Z,93.43
2018-12-26T21:46:22.553Z,92.62
2018-12-26T21:51:39.496Z,93.41
2018-12-26T21:56:36.388Z,94.02
2018-12-26T22:01:33.328Z,93.54
2018-12-26T22:06:30.357Z,92.57
2018-12-26T22:16:51.469Z,92.66
2018-12-26T22:21:48.521Z,92.71
2018-12-26T22:26:45.620Z,92.22
2018-12-26T22:32:02.229Z,92.71
2018-12-26T22:36:59.364Z,92.30
2018-12-26T22:41:55.816Z,92.05
2018-12-26T22:46:51.982Z,92.92
2018-12-26T22:51:48.447Z,93.53
2018-12-26T22:56:44.816Z,94.07
2018-12-26T23:01:41.058Z,92.65
2018-12-26T23:06:37.276Z,93.08
2018-12-26T23:11:33.469Z,93.51
2018-12-26T23:16:29.763Z,94.15
2018-12-26T23:21:25.931Z,94.60
2018-12-26T23:26:22.015Z,94.81
2018-12-26T23:31:18.335Z,94.89
2018-12-26T23:36:14.683Z,94.96
2018-12-26T23:41:10.886Z,95.07
2018-12-26T23:46:07.095Z,94.61
2018-12-26T23:51:03.366Z,94.93
2018-12-26T23:55:59.767Z,95.20
